Olivebridge, New York
Current Conditions -  °F | °C
As of 3:53 PM on Friday 24 Oct 2014 (Local Time) from KPOU Reporting Station
Overcast Overcast  
Wind Chill: 57°   Ceiling: 3900
Heat Index: 57°   Visibility: 10mi
Dew Point: 45°   Wind: 5mph
Humidity: 64%   Direction: 10°N
Pressure: 29.78"   Gusts: NA
Location:  41.93°N, 74.22°W
Report Text: KPOU 241953Z AUTO 01004KT 10SM OVC039 14/07 A2978 RMK AO2 SLP080 T01390072 TSNO
Loading
Personal Weather Stations






























Interactive Weather Map
Tropical Storm Tracking
New forecast layout! Learn more

10-Day Weather Forecast

Advertisements
Track Severe Weather on mobile